sensor_id;sensor_type;location;lat;lon;timestamp;temperature;humidity
61398;DHT22;47267;48.130;-2.040;2024-02-14T00:00:01;20.00;56.60
61398;DHT22;47267;48.130;-2.040;2024-02-14T00:02:27;20.00;56.60
61398;DHT22;47267;48.130;-2.040;2024-02-14T00:04:53;20.00;56.60
61398;DHT22;47267;48.130;-2.040;2024-02-14T00:07:20;20.00;56.60
61398;DHT22;47267;48.130;-2.040;2024-02-14T00:09:46;20.00;56.50
61398;DHT22;47267;48.130;-2.040;2024-02-14T00:12:12;20.00;56.60
61398;DHT22;47267;48.130;-2.040;2024-02-14T00:14:38;20.00;56.60
61398;DHT22;47267;48.130;-2.040;2024-02-14T00:17:04;20.00;56.60
61398;DHT22;47267;48.130;-2.040;2024-02-14T00:19:31;20.00;56.60
61398;DHT22;47267;48.130;-2.040;2024-02-14T00:21:57;20.00;56.50
61398;DHT22;47267;48.130;-2.040;2024-02-14T00:24:22;20.00;56.60
61398;DHT22;47267;48.130;-2.040;2024-02-14T00:26:52;20.00;56.50
61398;DHT22;47267;48.130;-2.040;2024-02-14T00:29:18;20.00;56.50
61398;DHT22;47267;48.130;-2.040;2024-02-14T00:31:44;20.00;56.60
61398;DHT22;47267;48.130;-2.040;2024-02-14T00:34:10;20.00;56.50
61398;DHT22;47267;48.130;-2.040;2024-02-14T00:36:36;20.00;56.60
61398;DHT22;47267;48.130;-2.040;2024-02-14T00:39:01;20.00;56.50
61398;DHT22;47267;48.130;-2.040;2024-02-14T00:41:27;20.00;56.40
61398;DHT22;47267;48.130;-2.040;2024-02-14T00:43:55;20.00;56.50
61398;DHT22;47267;48.130;-2.040;2024-02-14T00:46:22;20.00;56.50
61398;DHT22;47267;48.130;-2.040;2024-02-14T00:48:48;20.00;56.40
61398;DHT22;47267;48.130;-2.040;2024-02-14T00:51:13;20.00;56.40
61398;DHT22;47267;48.130;-2.040;2024-02-14T00:53:39;20.00;56.30
61398;DHT22;47267;48.130;-2.040;2024-02-14T00:56:05;20.00;56.90
61398;DHT22;47267;48.130;-2.040;2024-02-14T00:58:31;20.00;56.30
61398;DHT22;47267;48.130;-2.040;2024-02-14T01:00:57;20.00;56.30
61398;DHT22;47267;48.130;-2.040;2024-02-14T01:03:23;20.00;56.30
61398;DHT22;47267;48.130;-2.040;2024-02-14T01:05:49;20.10;56.40
61398;DHT22;47267;48.130;-2.040;2024-02-14T01:08:15;20.10;56.40
61398;DHT22;47267;48.130;-2.040;2024-02-14T01:10:41;20.10;56.30
61398;DHT22;47267;48.130;-2.040;2024-02-14T01:13:06;20.10;56.30
61398;DHT22;47267;48.130;-2.040;2024-02-14T01:15:32;20.10;56.30
61398;DHT22;47267;48.130;-2.040;2024-02-14T01:17:59;20.00;56.30
61398;DHT22;47267;48.130;-2.040;2024-02-14T01:20:25;20.10;56.30
61398;DHT22;47267;48.130;-2.040;2024-02-14T01:22:51;20.10;56.30
61398;DHT22;47267;48.130;-2.040;2024-02-14T01:25:17;20.10;56.30
61398;DHT22;47267;48.130;-2.040;2024-02-14T01:27:42;20.00;56.20
61398;DHT22;47267;48.130;-2.040;2024-02-14T01:30:09;20.10;56.30
61398;DHT22;47267;48.130;-2.040;2024-02-14T01:32:35;20.10;56.30
61398;DHT22;47267;48.130;-2.040;2024-02-14T01:35:00;20.10;56.30
61398;DHT22;47267;48.130;-2.040;2024-02-14T01:37:26;20.10;56.30
61398;DHT22;47267;48.130;-2.040;2024-02-14T01:39:54;20.10;56.30
61398;DHT22;47267;48.130;-2.040;2024-02-14T01:42:20;20.10;56.30
61398;DHT22;47267;48.130;-2.040;2024-02-14T01:44:46;20.10;56.30
61398;DHT22;47267;48.130;-2.040;2024-02-14T01:47:11;20.10;56.20
61398;DHT22;47267;48.130;-2.040;2024-02-14T01:49:38;20.10;56.20
61398;DHT22;47267;48.130;-2.040;2024-02-14T01:52:04;20.10;56.30
61398;DHT22;47267;48.130;-2.040;2024-02-14T01:54:30;20.10;56.20
61398;DHT22;47267;48.130;-2.040;2024-02-14T01:56:57;20.10;56.20
61398;DHT22;47267;48.130;-2.040;2024-02-14T01:59:24;20.10;56.30
61398;DHT22;47267;48.130;-2.040;2024-02-14T02:01:51;20.10;56.20
61398;DHT22;47267;48.130;-2.040;2024-02-14T02:04:19;20.10;56.30
61398;DHT22;47267;48.130;-2.040;2024-02-14T02:06:46;20.10;56.20
61398;DHT22;47267;48.130;-2.040;2024-02-14T02:09:12;20.10;56.20
61398;DHT22;47267;48.130;-2.040;2024-02-14T02:11:51;20.10;56.20
61398;DHT22;47267;48.130;-2.040;2024-02-14T02:14:17;20.10;56.20
61398;DHT22;47267;48.130;-2.040;2024-02-14T02:16:43;20.10;56.20
61398;DHT22;47267;48.130;-2.040;2024-02-14T02:19:10;20.10;56.20
61398;DHT22;47267;48.130;-2.040;2024-02-14T02:21:36;20.10;56.20
61398;DHT22;47267;48.130;-2.040;2024-02-14T02:24:02;20.10;56.20
61398;DHT22;47267;48.130;-2.040;2024-02-14T02:26:28;20.10;56.20
61398;DHT22;47267;48.130;-2.040;2024-02-14T02:28:53;20.10;56.20
61398;DHT22;47267;48.130;-2.040;2024-02-14T02:31:20;20.10;56.20
61398;DHT22;47267;48.130;-2.040;2024-02-14T02:33:46;20.10;56.80
61398;DHT22;47267;48.130;-2.040;2024-02-14T02:36:12;20.10;56.20
61398;DHT22;47267;48.130;-2.040;2024-02-14T02:38:37;20.10;56.20
61398;DHT22;47267;48.130;-2.040;2024-02-14T02:41:04;20.10;56.10
61398;DHT22;47267;48.130;-2.040;2024-02-14T02:43:33;20.10;56.10
61398;DHT22;47267;48.130;-2.040;2024-02-14T02:45:59;20.10;56.20
61398;DHT22;47267;48.130;-2.040;2024-02-14T02:48:24;20.10;56.20
61398;DHT22;47267;48.130;-2.040;2024-02-14T02:50:51;20.10;56.20
61398;DHT22;47267;48.130;-2.040;2024-02-14T02:53:17;20.10;56.20
61398;DHT22;47267;48.130;-2.040;2024-02-14T02:55:42;20.10;56.20
61398;DHT22;47267;48.130;-2.040;2024-02-14T02:58:09;20.10;56.20
61398;DHT22;47267;48.130;-2.040;2024-02-14T03:00:34;20.10;56.20
61398;DHT22;47267;48.130;-2.040;2024-02-14T03:03:00;20.10;56.20
61398;DHT22;47267;48.130;-2.040;2024-02-14T03:05:28;20.10;56.20
61398;DHT22;47267;48.130;-2.040;2024-02-14T03:07:57;20.10;56.20
61398;DHT22;47267;48.130;-2.040;2024-02-14T03:10:24;20.10;56.10
61398;DHT22;47267;48.130;-2.040;2024-02-14T03:12:51;20.10;56.20
61398;DHT22;47267;48.130;-2.040;2024-02-14T03:15:17;20.10;56.20
61398;DHT22;47267;48.130;-2.040;2024-02-14T03:17:44;20.10;56.20
61398;DHT22;47267;48.130;-2.040;2024-02-14T03:20:10;20.10;56.20
61398;DHT22;47267;48.130;-2.040;2024-02-14T03:22:43;20.10;56.20
61398;DHT22;47267;48.130;-2.040;2024-02-14T03:25:16;20.10;56.20
61398;DHT22;47267;48.130;-2.040;2024-02-14T03:27:43;20.10;56.10
61398;DHT22;47267;48.130;-2.040;2024-02-14T03:30:12;20.10;56.20
61398;DHT22;47267;48.130;-2.040;2024-02-14T03:32:38;20.10;56.20
61398;DHT22;47267;48.130;-2.040;2024-02-14T03:35:04;20.10;56.10
61398;DHT22;47267;48.130;-2.040;2024-02-14T03:37:32;20.10;56.10
61398;DHT22;47267;48.130;-2.040;2024-02-14T03:39:57;20.10;56.20
61398;DHT22;47267;48.130;-2.040;2024-02-14T03:42:23;20.10;56.10
61398;DHT22;47267;48.130;-2.040;2024-02-14T03:44:49;20.10;56.20
61398;DHT22;47267;48.130;-2.040;2024-02-14T03:47:14;20.10;56.10
61398;DHT22;47267;48.130;-2.040;2024-02-14T03:49:40;20.10;56.20
61398;DHT22;47267;48.130;-2.040;2024-02-14T03:52:06;20.10;56.20
61398;DHT22;47267;48.130;-2.040;2024-02-14T03:54:36;20.10;56.20
61398;DHT22;47267;48.130;-2.040;2024-02-14T03:57:02;20.10;56.70
61398;DHT22;47267;48.130;-2.040;2024-02-14T03:59:30;20.10;56.20
61398;DHT22;47267;48.130;-2.040;2024-02-14T04:01:56;20.10;56.20
61398;DHT22;47267;48.130;-2.040;2024-02-14T04:04:23;20.10;56.20
61398;DHT22;47267;48.130;-2.040;2024-02-14T04:06:49;20.10;56.10
61398;DHT22;47267;48.130;-2.040;2024-02-14T04:09:14;20.10;56.20
61398;DHT22;47267;48.130;-2.040;2024-02-14T04:11:40;20.10;56.20
61398;DHT22;47267;48.130;-2.040;2024-02-14T04:14:06;20.10;56.20
61398;DHT22;47267;48.130;-2.040;2024-02-14T04:16:32;20.10;56.20
61398;DHT22;47267;48.130;-2.040;2024-02-14T04:18:58;20.10;56.20
61398;DHT22;47267;48.130;-2.040;2024-02-14T04:21:24;20.10;56.20
61398;DHT22;47267;48.130;-2.040;2024-02-14T04:23:50;20.10;56.30
61398;DHT22;47267;48.130;-2.040;2024-02-14T04:26:22;20.10;56.20
61398;DHT22;47267;48.130;-2.040;2024-02-14T04:28:48;20.10;56.20
61398;DHT22;47267;48.130;-2.040;2024-02-14T04:31:14;20.10;56.20
61398;DHT22;47267;48.130;-2.040;2024-02-14T04:33:39;20.10;56.30
61398;DHT22;47267;48.130;-2.040;2024-02-14T04:36:05;20.10;56.20
61398;DHT22;47267;48.130;-2.040;2024-02-14T04:38:31;20.10;56.20
61398;DHT22;47267;48.130;-2.040;2024-02-14T04:40:57;20.10;56.20
61398;DHT22;47267;48.130;-2.040;2024-02-14T04:43:25;20.10;56.20
61398;DHT22;47267;48.130;-2.040;2024-02-14T04:45:52;20.10;56.20
61398;DHT22;47267;48.130;-2.040;2024-02-14T04:48:17;20.10;56.20
61398;DHT22;47267;48.130;-2.040;2024-02-14T04:50:43;20.10;56.30
61398;DHT22;47267;48.130;-2.040;2024-02-14T04:53:09;20.10;56.80
61398;DHT22;47267;48.130;-2.040;2024-02-14T04:55:35;20.10;56.30
61398;DHT22;47267;48.130;-2.040;2024-02-14T04:58:01;20.10;56.20
61398;DHT22;47267;48.130;-2.040;2024-02-14T05:00:27;20.10;56.20
61398;DHT22;47267;48.130;-2.040;2024-02-14T05:02:53;20.10;56.30
61398;DHT22;47267;48.130;-2.040;2024-02-14T05:05:19;20.10;56.20
61398;DHT22;47267;48.130;-2.040;2024-02-14T05:07:46;20.10;56.20
61398;DHT22;47267;48.130;-2.040;2024-02-14T05:10:12;20.10;56.30
61398;DHT22;47267;48.130;-2.040;2024-02-14T05:12:39;20.10;56.20
61398;DHT22;47267;48.130;-2.040;2024-02-14T05:15:05;20.10;56.30
61398;DHT22;47267;48.130;-2.040;2024-02-14T05:17:31;20.10;56.30
61398;DHT22;47267;48.130;-2.040;2024-02-14T05:19:56;20.10;56.20
61398;DHT22;47267;48.130;-2.040;2024-02-14T05:22:22;20.10;56.30
61398;DHT22;47267;48.130;-2.040;2024-02-14T05:24:48;20.10;56.30
61398;DHT22;47267;48.130;-2.040;2024-02-14T05:27:14;20.10;56.30
61398;DHT22;47267;48.130;-2.040;2024-02-14T05:29:39;20.10;56.30
61398;DHT22;47267;48.130;-2.040;2024-02-14T05:32:05;20.10;56.30
61398;DHT22;47267;48.130;-2.040;2024-02-14T05:34:31;20.10;56.30
61398;DHT22;47267;48.130;-2.040;2024-02-14T05:36:57;20.10;56.30
61398;DHT22;47267;48.130;-2.040;2024-02-14T05:39:23;20.10;56.30
61398;DHT22;47267;48.130;-2.040;2024-02-14T05:41:48;20.10;56.30
61398;DHT22;47267;48.130;-2.040;2024-02-14T05:44:15;20.10;56.90
61398;DHT22;47267;48.130;-2.040;2024-02-14T05:46:40;20.10;56.30
61398;DHT22;47267;48.130;-2.040;2024-02-14T05:49:06;20.10;56.30
61398;DHT22;47267;48.130;-2.040;2024-02-14T05:51:32;20.10;56.30
61398;DHT22;47267;48.130;-2.040;2024-02-14T05:53:58;20.10;56.30
61398;DHT22;47267;48.130;-2.040;2024-02-14T05:56:24;20.10;56.30
61398;DHT22;47267;48.130;-2.040;2024-02-14T05:58:49;20.10;56.30
61398;DHT22;47267;48.130;-2.040;2024-02-14T06:01:16;20.10;56.30
61398;DHT22;47267;48.130;-2.040;2024-02-14T06:03:42;20.10;56.30
61398;DHT22;47267;48.130;-2.040;2024-02-14T06:06:10;20.10;56.30
61398;DHT22;47267;48.130;-2.040;2024-02-14T06:08:36;20.10;56.30
61398;DHT22;47267;48.130;-2.040;2024-02-14T06:11:02;20.00;56.30
61398;DHT22;47267;48.130;-2.040;2024-02-14T06:13:28;20.10;56.30
61398;DHT22;47267;48.130;-2.040;2024-02-14T06:15:53;20.10;56.30
61398;DHT22;47267;48.130;-2.040;2024-02-14T06:18:19;20.10;56.30
61398;DHT22;47267;48.130;-2.040;2024-02-14T06:20:45;20.10;56.30
61398;DHT22;47267;48.130;-2.040;2024-02-14T06:23:12;20.00;56.30
61398;DHT22;47267;48.130;-2.040;2024-02-14T06:25:37;20.10;56.40
61398;DHT22;47267;48.130;-2.040;2024-02-14T06:28:03;20.10;56.40
61398;DHT22;47267;48.130;-2.040;2024-02-14T06:30:29;20.00;56.30
61398;DHT22;47267;48.130;-2.040;2024-02-14T06:32:55;20.10;56.40
61398;DHT22;47267;48.130;-2.040;2024-02-14T06:35:21;20.10;56.50
61398;DHT22;47267;48.130;-2.040;2024-02-14T06:37:47;20.10;56.40
61398;DHT22;47267;48.130;-2.040;2024-02-14T06:40:13;20.10;56.50
61398;DHT22;47267;48.130;-2.040;2024-02-14T06:42:38;20.10;56.80
61398;DHT22;47267;48.130;-2.040;2024-02-14T06:45:05;20.10;56.70
61398;DHT22;47267;48.130;-2.040;2024-02-14T06:47:31;20.10;56.80
61398;DHT22;47267;48.130;-2.040;2024-02-14T06:49:57;20.10;57.20
61398;DHT22;47267;48.130;-2.040;2024-02-14T06:52:24;20.10;57.10
61398;DHT22;47267;48.130;-2.040;2024-02-14T06:54:50;20.10;57.20
61398;DHT22;47267;48.130;-2.040;2024-02-14T06:57:15;20.10;57.40
61398;DHT22;47267;48.130;-2.040;2024-02-14T06:59:41;20.10;57.40
61398;DHT22;47267;48.130;-2.040;2024-02-14T07:02:07;20.10;57.40
61398;DHT22;47267;48.130;-2.040;2024-02-14T07:04:33;20.10;57.50
61398;DHT22;47267;48.130;-2.040;2024-02-14T07:06:59;20.10;57.50
61398;DHT22;47267;48.130;-2.040;2024-02-14T07:09:25;20.10;57.50
61398;DHT22;47267;48.130;-2.040;2024-02-14T07:11:52;20.10;57.60
61398;DHT22;47267;48.130;-2.040;2024-02-14T07:14:22;20.10;57.60
61398;DHT22;47267;48.130;-2.040;2024-02-14T07:16:48;20.10;57.80
61398;DHT22;47267;48.130;-2.040;2024-02-14T07:19:14;20.10;57.70
61398;DHT22;47267;48.130;-2.040;2024-02-14T07:21:40;20.10;57.70
61398;DHT22;47267;48.130;-2.040;2024-02-14T07:24:06;20.10;57.80
61398;DHT22;47267;48.130;-2.040;2024-02-14T07:26:31;20.10;57.90
61398;DHT22;47267;48.130;-2.040;2024-02-14T07:28:57;20.10;57.80
61398;DHT22;47267;48.130;-2.040;2024-02-14T07:31:24;20.10;58.00
61398;DHT22;47267;48.130;-2.040;2024-02-14T07:33:53;20.10;57.90
61398;DHT22;47267;48.130;-2.040;2024-02-14T07:36:19;20.10;57.80
61398;DHT22;47267;48.130;-2.040;2024-02-14T07:38:45;20.10;57.90
61398;DHT22;47267;48.130;-2.040;2024-02-14T07:41:11;20.10;57.90
61398;DHT22;47267;48.130;-2.040;2024-02-14T07:43:36;20.10;57.90
61398;DHT22;47267;48.130;-2.040;2024-02-14T07:46:02;20.10;58.00
61398;DHT22;47267;48.130;-2.040;2024-02-14T07:48:27;20.10;57.90
61398;DHT22;47267;48.130;-2.040;2024-02-14T07:50:53;20.10;57.90
61398;DHT22;47267;48.130;-2.040;2024-02-14T07:53:19;20.10;57.90
61398;DHT22;47267;48.130;-2.040;2024-02-14T07:55:44;20.10;58.00
61398;DHT22;47267;48.130;-2.040;2024-02-14T07:58:10;20.10;57.90
61398;DHT22;47267;48.130;-2.040;2024-02-14T08:00:36;20.10;57.90
61398;DHT22;47267;48.130;-2.040;2024-02-14T08:03:02;20.10;57.90
61398;DHT22;47267;48.130;-2.040;2024-02-14T08:05:29;20.10;58.00
61398;DHT22;47267;48.130;-2.040;2024-02-14T08:07:54;20.10;58.00
61398;DHT22;47267;48.130;-2.040;2024-02-14T08:10:20;20.10;58.00
61398;DHT22;47267;48.130;-2.040;2024-02-14T08:12:46;20.10;57.90
61398;DHT22;47267;48.130;-2.040;2024-02-14T08:15:13;20.10;57.90
61398;DHT22;47267;48.130;-2.040;2024-02-14T08:17:39;20.10;57.90
61398;DHT22;47267;48.130;-2.040;2024-02-14T08:20:05;20.10;58.00
61398;DHT22;47267;48.130;-2.040;2024-02-14T08:22:31;20.10;57.90
61398;DHT22;47267;48.130;-2.040;2024-02-14T08:24:57;20.10;57.80
61398;DHT22;47267;48.130;-2.040;2024-02-14T08:27:23;20.10;57.80
61398;DHT22;47267;48.130;-2.040;2024-02-14T08:29:49;20.10;57.90
61398;DHT22;47267;48.130;-2.040;2024-02-14T08:32:14;20.10;57.80
61398;DHT22;47267;48.130;-2.040;2024-02-14T08:34:40;20.10;57.90
61398;DHT22;47267;48.130;-2.040;2024-02-14T08:37:06;20.10;57.80
61398;DHT22;47267;48.130;-2.040;2024-02-14T08:39:33;20.10;58.40
61398;DHT22;47267;48.130;-2.040;2024-02-14T08:41:59;20.10;57.80
61398;DHT22;47267;48.130;-2.040;2024-02-14T08:44:28;20.10;57.80
61398;DHT22;47267;48.130;-2.040;2024-02-14T08:46:54;20.10;57.70
61398;DHT22;47267;48.130;-2.040;2024-02-14T08:49:20;20.10;57.70
61398;DHT22;47267;48.130;-2.040;2024-02-14T08:51:46;20.10;57.70
61398;DHT22;47267;48.130;-2.040;2024-02-14T08:54:13;20.10;57.70
61398;DHT22;47267;48.130;-2.040;2024-02-14T08:56:41;20.10;57.70
61398;DHT22;47267;48.130;-2.040;2024-02-14T08:59:07;20.10;57.70
61398;DHT22;47267;48.130;-2.040;2024-02-14T09:01:33;20.10;57.60
61398;DHT22;47267;48.130;-2.040;2024-02-14T09:03:58;20.10;57.70
61398;DHT22;47267;48.130;-2.040;2024-02-14T09:06:25;20.10;57.70
61398;DHT22;47267;48.130;-2.040;2024-02-14T09:08:51;20.10;57.70
61398;DHT22;47267;48.130;-2.040;2024-02-14T09:11:17;20.10;57.60
61398;DHT22;47267;48.130;-2.040;2024-02-14T09:13:43;20.10;57.60
61398;DHT22;47267;48.130;-2.040;2024-02-14T09:16:10;20.10;57.60
61398;DHT22;47267;48.130;-2.040;2024-02-14T09:18:37;20.10;57.60
61398;DHT22;47267;48.130;-2.040;2024-02-14T09:21:02;20.10;57.60
61398;DHT22;47267;48.130;-2.040;2024-02-14T09:23:31;20.10;57.60
61398;DHT22;47267;48.130;-2.040;2024-02-14T09:25:58;20.10;57.60
61398;DHT22;47267;48.130;-2.040;2024-02-14T09:28:24;20.10;57.50
61398;DHT22;47267;48.130;-2.040;2024-02-14T09:30:50;20.10;57.60
61398;DHT22;47267;48.130;-2.040;2024-02-14T09:33:16;20.10;57.60
61398;DHT22;47267;48.130;-2.040;2024-02-14T09:35:42;20.10;57.50
61398;DHT22;47267;48.130;-2.040;2024-02-14T09:38:11;20.10;57.50
61398;DHT22;47267;48.130;-2.040;2024-02-14T09:40:42;20.10;57.50
61398;DHT22;47267;48.130;-2.040;2024-02-14T09:43:32;20.10;57.50
61398;DHT22;47267;48.130;-2.040;2024-02-14T09:46:00;20.10;57.50
61398;DHT22;47267;48.130;-2.040;2024-02-14T09:48:29;20.10;57.40
61398;DHT22;47267;48.130;-2.040;2024-02-14T09:50:56;20.10;57.40
61398;DHT22;47267;48.130;-2.040;2024-02-14T09:53:23;20.20;57.50
61398;DHT22;47267;48.130;-2.040;2024-02-14T09:55:50;20.10;57.50
61398;DHT22;47267;48.130;-2.040;2024-02-14T09:58:17;20.10;57.40
61398;DHT22;47267;48.130;-2.040;2024-02-14T10:00:43;20.10;57.40
61398;DHT22;47267;48.130;-2.040;2024-02-14T10:03:09;20.10;57.40
61398;DHT22;47267;48.130;-2.040;2024-02-14T10:05:35;20.10;57.40
61398;DHT22;47267;48.130;-2.040;2024-02-14T10:08:01;20.10;57.40
61398;DHT22;47267;48.130;-2.040;2024-02-14T10:10:27;20.10;57.40
61398;DHT22;47267;48.130;-2.040;2024-02-14T10:12:56;20.10;57.40
61398;DHT22;47267;48.130;-2.040;2024-02-14T10:15:22;20.20;57.50
61398;DHT22;47267;48.130;-2.040;2024-02-14T10:17:48;20.20;57.50
61398;DHT22;47267;48.130;-2.040;2024-02-14T10:20:17;20.20;57.50
61398;DHT22;47267;48.130;-2.040;2024-02-14T10:22:43;20.10;57.40
61398;DHT22;47267;48.130;-2.040;2024-02-14T10:25:10;20.10;57.40
61398;DHT22;47267;48.130;-2.040;2024-02-14T10:27:37;20.10;57.40
61398;DHT22;47267;48.130;-2.040;2024-02-14T10:30:07;20.20;57.50
61398;DHT22;47267;48.130;-2.040;2024-02-14T10:32:37;20.20;57.40
61398;DHT22;47267;48.130;-2.040;2024-02-14T10:35:06;20.20;57.40
61398;DHT22;47267;48.130;-2.040;2024-02-14T10:37:36;20.20;57.40
61398;DHT22;47267;48.130;-2.040;2024-02-14T10:40:03;20.20;57.50
61398;DHT22;47267;48.130;-2.040;2024-02-14T10:42:30;20.20;57.40
61398;DHT22;47267;48.130;-2.040;2024-02-14T10:44:56;20.20;57.40
61398;DHT22;47267;48.130;-2.040;2024-02-14T10:47:25;20.20;57.40
61398;DHT22;47267;48.130;-2.040;2024-02-14T10:49:57;20.10;57.40
61398;DHT22;47267;48.130;-2.040;2024-02-14T10:52:24;20.10;57.40
61398;DHT22;47267;48.130;-2.040;2024-02-14T10:54:56;20.10;57.40
61398;DHT22;47267;48.130;-2.040;2024-02-14T10:57:25;20.10;57.40
61398;DHT22;47267;48.130;-2.040;2024-02-14T10:59:51;20.10;57.40
61398;DHT22;47267;48.130;-2.040;2024-02-14T11:02:19;20.10;57.40
61398;DHT22;47267;48.130;-2.040;2024-02-14T11:04:45;20.10;57.40
61398;DHT22;47267;48.130;-2.040;2024-02-14T11:07:11;20.10;57.40
61398;DHT22;47267;48.130;-2.040;2024-02-14T11:09:38;20.10;57.40
61398;DHT22;47267;48.130;-2.040;2024-02-14T11:12:12;20.20;57.40
61398;DHT22;47267;48.130;-2.040;2024-02-14T11:14:37;20.10;57.40
61398;DHT22;47267;48.130;-2.040;2024-02-14T11:17:10;20.20;57.50
61398;DHT22;47267;48.130;-2.040;2024-02-14T11:19:36;20.20;57.50
61398;DHT22;47267;48.130;-2.040;2024-02-14T11:22:34;20.10;57.40
61398;DHT22;47267;48.130;-2.040;2024-02-14T11:25:07;20.10;57.50
61398;DHT22;47267;48.130;-2.040;2024-02-14T11:27:35;20.20;57.50
61398;DHT22;47267;48.130;-2.040;2024-02-14T11:30:01;20.20;57.40
61398;DHT22;47267;48.130;-2.040;2024-02-14T11:32:28;20.20;57.40
61398;DHT22;47267;48.130;-2.040;2024-02-14T11:34:55;20.20;57.40
61398;DHT22;47267;48.130;-2.040;2024-02-14T11:37:28;20.20;57.50
61398;DHT22;47267;48.130;-2.040;2024-02-14T11:39:54;20.20;57.40
61398;DHT22;47267;48.130;-2.040;2024-02-14T11:42:24;20.20;57.40
61398;DHT22;47267;48.130;-2.040;2024-02-14T11:44:50;20.20;57.50
61398;DHT22;47267;48.130;-2.040;2024-02-14T11:47:16;20.20;57.40
61398;DHT22;47267;48.130;-2.040;2024-02-14T11:49:41;20.20;57.40
61398;DHT22;47267;48.130;-2.040;2024-02-14T11:52:17;20.20;57.40
61398;DHT22;47267;48.130;-2.040;2024-02-14T11:54:46;20.20;57.40
61398;DHT22;47267;48.130;-2.040;2024-02-14T11:57:17;20.20;57.50
61398;DHT22;47267;48.130;-2.040;2024-02-14T11:59:43;20.20;57.50
61398;DHT22;47267;48.130;-2.040;2024-02-14T12:02:09;20.20;57.50
61398;DHT22;47267;48.130;-2.040;2024-02-14T12:04:35;20.20;57.40
61398;DHT22;47267;48.130;-2.040;2024-02-14T12:07:02;20.20;57.50
61398;DHT22;47267;48.130;-2.040;2024-02-14T12:09:27;20.20;57.40
61398;DHT22;47267;48.130;-2.040;2024-02-14T12:11:53;20.20;57.50
61398;DHT22;47267;48.130;-2.040;2024-02-14T12:14:22;20.20;57.50
61398;DHT22;47267;48.130;-2.040;2024-02-14T12:16:50;20.20;57.50
61398;DHT22;47267;48.130;-2.040;2024-02-14T12:19:16;20.20;57.40
61398;DHT22;47267;48.130;-2.040;2024-02-14T12:21:42;20.20;57.50
61398;DHT22;47267;48.130;-2.040;2024-02-14T12:24:12;20.20;57.50
61398;DHT22;47267;48.130;-2.040;2024-02-14T12:26:41;20.10;57.40
61398;DHT22;47267;48.130;-2.040;2024-02-14T12:29:08;20.20;57.50
61398;DHT22;47267;48.130;-2.040;2024-02-14T12:31:36;20.20;58.10
61398;DHT22;47267;48.130;-2.040;2024-02-14T12:34:03;20.20;57.60
61398;DHT22;47267;48.130;-2.040;2024-02-14T12:36:33;20.10;57.50
61398;DHT22;47267;48.130;-2.040;2024-02-14T12:38:59;20.10;57.50
61398;DHT22;47267;48.130;-2.040;2024-02-14T12:41:28;20.10;57.50
61398;DHT22;47267;48.130;-2.040;2024-02-14T12:43:58;20.10;57.60
61398;DHT22;47267;48.130;-2.040;2024-02-14T12:46:24;20.10;57.60
61398;DHT22;47267;48.130;-2.040;2024-02-14T12:48:50;20.10;57.60
61398;DHT22;47267;48.130;-2.040;2024-02-14T12:51:16;20.10;57.60
61398;DHT22;47267;48.130;-2.040;2024-02-14T12:53:42;20.10;57.60
61398;DHT22;47267;48.130;-2.040;2024-02-14T12:56:08;20.10;57.60
61398;DHT22;47267;48.130;-2.040;2024-02-14T12:58:34;20.10;57.70
61398;DHT22;47267;48.130;-2.040;2024-02-14T13:01:00;20.10;57.70
61398;DHT22;47267;48.130;-2.040;2024-02-14T13:03:26;20.10;57.70
61398;DHT22;47267;48.130;-2.040;2024-02-14T13:05:53;20.10;57.70
61398;DHT22;47267;48.130;-2.040;2024-02-14T13:08:20;20.10;57.70
61398;DHT22;47267;48.130;-2.040;2024-02-14T13:10:46;20.10;57.70
61398;DHT22;47267;48.130;-2.040;2024-02-14T13:13:12;20.10;57.70
61398;DHT22;47267;48.130;-2.040;2024-02-14T13:15:38;20.10;57.70
61398;DHT22;47267;48.130;-2.040;2024-02-14T13:18:05;20.10;57.70
61398;DHT22;47267;48.130;-2.040;2024-02-14T13:20:31;20.10;57.70
61398;DHT22;47267;48.130;-2.040;2024-02-14T13:22:57;20.10;57.70
61398;DHT22;47267;48.130;-2.040;2024-02-14T13:25:23;20.10;57.80
61398;DHT22;47267;48.130;-2.040;2024-02-14T13:27:48;20.10;57.80
61398;DHT22;47267;48.130;-2.040;2024-02-14T13:30:14;20.10;57.80
61398;DHT22;47267;48.130;-2.040;2024-02-14T13:32:40;20.10;57.90
61398;DHT22;47267;48.130;-2.040;2024-02-14T13:35:06;20.10;57.90
61398;DHT22;47267;48.130;-2.040;2024-02-14T13:37:32;20.10;57.90
61398;DHT22;47267;48.130;-2.040;2024-02-14T13:39:58;20.10;57.90
61398;DHT22;47267;48.130;-2.040;2024-02-14T13:42:24;20.10;58.00
61398;DHT22;47267;48.130;-2.040;2024-02-14T13:44:49;20.10;58.00
61398;DHT22;47267;48.130;-2.040;2024-02-14T13:47:18;20.10;58.00
61398;DHT22;47267;48.130;-2.040;2024-02-14T13:49:44;20.10;58.00
61398;DHT22;47267;48.130;-2.040;2024-02-14T13:52:10;20.10;58.00
61398;DHT22;47267;48.130;-2.040;2024-02-14T13:54:36;20.10;58.00
61398;DHT22;47267;48.130;-2.040;2024-02-14T13:57:01;20.10;58.10
61398;DHT22;47267;48.130;-2.040;2024-02-14T13:59:28;20.10;58.10
61398;DHT22;47267;48.130;-2.040;2024-02-14T14:01:55;20.00;58.10
61398;DHT22;47267;48.130;-2.040;2024-02-14T14:04:20;20.10;58.10
61398;DHT22;47267;48.130;-2.040;2024-02-14T14:06:46;20.10;58.10
61398;DHT22;47267;48.130;-2.040;2024-02-14T14:09:13;20.10;58.10
61398;DHT22;47267;48.130;-2.040;2024-02-14T14:11:39;20.10;58.20
61398;DHT22;47267;48.130;-2.040;2024-02-14T14:14:05;20.10;58.20
61398;DHT22;47267;48.130;-2.040;2024-02-14T14:16:31;20.10;58.20
61398;DHT22;47267;48.130;-2.040;2024-02-14T14:19:00;20.10;58.20
61398;DHT22;47267;48.130;-2.040;2024-02-14T14:21:27;20.10;58.20
61398;DHT22;47267;48.130;-2.040;2024-02-14T14:23:52;20.00;58.20
61398;DHT22;47267;48.130;-2.040;2024-02-14T14:26:18;20.00;58.30
61398;DHT22;47267;48.130;-2.040;2024-02-14T14:28:45;20.00;58.30
61398;DHT22;47267;48.130;-2.040;2024-02-14T14:31:11;20.00;58.20
61398;DHT22;47267;48.130;-2.040;2024-02-14T14:33:37;20.00;58.20
61398;DHT22;47267;48.130;-2.040;2024-02-14T14:36:04;20.00;58.30
61398;DHT22;47267;48.130;-2.040;2024-02-14T14:38:30;20.00;58.30
61398;DHT22;47267;48.130;-2.040;2024-02-14T14:40:56;20.00;58.30
61398;DHT22;47267;48.130;-2.040;2024-02-14T14:43:22;20.00;58.30
61398;DHT22;47267;48.130;-2.040;2024-02-14T14:45:48;20.00;58.40
61398;DHT22;47267;48.130;-2.040;2024-02-14T14:48:17;20.00;58.40
61398;DHT22;47267;48.130;-2.040;2024-02-14T14:50:43;20.00;58.40
61398;DHT22;47267;48.130;-2.040;2024-02-14T14:53:09;20.00;58.40
61398;DHT22;47267;48.130;-2.040;2024-02-14T14:55:53;20.00;58.40
61398;DHT22;47267;48.130;-2.040;2024-02-14T14:58:20;20.00;58.40
61398;DHT22;47267;48.130;-2.040;2024-02-14T15:00:47;20.00;58.40
61398;DHT22;47267;48.130;-2.040;2024-02-14T15:03:13;20.00;58.50
61398;DHT22;47267;48.130;-2.040;2024-02-14T15:05:39;20.00;58.40
61398;DHT22;47267;48.130;-2.040;2024-02-14T15:08:07;20.00;58.40
61398;DHT22;47267;48.130;-2.040;2024-02-14T15:10:34;20.00;58.40